Wetterstation Rossbuehl

Zugriff auf die letzten 10 Werte 30 Werte 100 Werte 400 Werte

Datum_____UhrzeitWind
Mittel
Wind
min
Wind
Boe
Wind
BoeTag
Wind
Richtung
Temp1
Feuchte Station Power
type
BatterieInter
vall
SMS
JJJJ-MM-TT hh:mmkm/hmin SpitzePeak Grad °C % ID Ex.oBat Volt min St.
2020-09-24 15:53 11 8 14 260 14.3 13 2 5.77 1
2020-09-24 15:38 9 2 14 242 14.4 2 2 5.77 1
2020-09-24 15:23 16 10 21 250 14.7 19 2 5.77 1
2020-09-24 15:08 15 11 21 255 14.8 4 2 5.77 1
2020-09-24 14:53 23 19 25 270 13.8 6 2 5.77 1
2020-09-24 14:38 16 10 20 276 14.2 15 2 5.77 1
2020-09-24 14:23 14 5 22 286 14.6 6 2 5.77 1
2020-09-24 14:08 12 9 14 255 14.3 21 2 5.77 1
2020-09-24 13:53 14 8 16 268 14.3 6 2 5.77 1
2020-09-24 13:38 16 12 19 258 14.6 27 2 5.77 1
2020-09-24 13:23 16 14 17 276 14.1 15 2 5.77 1
2020-09-24 13:08 15 10 21 280 14 25 2 5.77 1
2020-09-24 12:53 15 12 17 262 13.1 6 2 5.79 1
2020-09-24 12:38 13 9 18 257 13.8 17 2 5.77 1
2020-09-24 12:23 15 12 22 260 12.7 12 2 5.78 1
2020-09-24 12:08 12 8 16 270 12.8 4 2 5.79 1
2020-09-24 11:53 12 11 13 262 12.4 6 2 5.77 1
2020-09-24 11:38 14 8 17 254 11.9 15 2 5.79 1
2020-09-24 11:23 11 9 14 266 11.9 8 2 5.79 1
2020-09-24 11:08 14 10 16 265 11.5 8 2 5.80 1